Time;durP1;ratioP1;P1;durP2;ratioP2;P2;SDS_P1;SDS_P2;PMS_P1;PMS_P2;Temp;Humidity;BMP_temperature;BMP_pressure;BME280_temperature;BME280_humidity;BME280_pressure;Samples;Min_cycle;Max_cycle;Signal;HPM_P1;HPM_P2
2021/05/21 00:01:28;;;;;;;1.70;1.40;;;13.70;85.10;;;;;;5008247;28;20101;-76
2021/05/21 00:03:54;;;;;;;1.58;1.40;;;13.70;84.90;;;;;;5011320;28;20042;-76
2021/05/21 00:06:19;;;;;;;1.85;1.33;;;13.70;85.30;;;;;;5002293;28;20054;-75
2021/05/21 00:08:45;;;;;;;1.75;1.25;;;13.70;85.20;;;;;;5001785;28;20044;-76
2021/05/21 00:11:10;;;;;;;2.60;1.50;;;13.70;85.20;;;;;;5005448;28;20490;-75
2021/05/21 00:13:35;;;;;;;1.55;1.17;;;13.70;85.60;;;;;;5007192;28;20050;-76
2021/05/21 00:16:01;;;;;;;1.80;1.60;;;13.70;85.30;;;;;;4999249;28;20042;-76
2021/05/21 00:18:26;;;;;;;2.15;1.67;;;13.70;85.50;;;;;;5008667;28;20096;-75
2021/05/21 00:20:52;;;;;;;2.40;1.45;;;13.70;85.20;;;;;;5001667;28;20049;-74
2021/05/21 00:23:19;;;;;;;2.03;1.30;;;13.70;85.30;;;;;;5003110;28;20038;-74
2021/05/21 00:25:44;;;;;;;4.72;1.58;;;13.70;85.50;;;;;;5005907;28;20413;-75
2021/05/21 00:28:10;;;;;;;1.42;1.30;;;13.60;85.40;;;;;;5004626;28;20103;-75
2021/05/21 00:30:35;;;;;;;2.55;1.80;;;13.60;85.40;;;;;;5005754;28;20050;-75
2021/05/21 00:33:01;;;;;;;3.00;1.60;;;13.50;85.80;;;;;;5005805;28;20070;-75
2021/05/21 00:35:26;;;;;;;1.70;1.38;;;13.50;86.10;;;;;;5010058;28;20107;-75
2021/05/21 00:37:52;;;;;;;2.97;1.40;;;13.50;85.70;;;;;;5001505;28;20030;-75
2021/05/21 00:40:18;;;;;;;2.45;1.52;;;13.50;85.80;;;;;;5004819;28;20077;-75
2021/05/21 00:42:43;;;;;;;2.80;1.65;;;13.50;85.80;;;;;;5000235;28;20042;-75
2021/05/21 00:45:09;;;;;;;2.78;1.98;;;13.60;85.90;;;;;;5005395;28;20416;-75
2021/05/21 00:47:34;;;;;;;3.20;1.52;;;13.50;85.80;;;;;;4998662;28;20038;-75
2021/05/21 00:50:00;;;;;;;2.83;1.95;;;13.50;86.30;;;;;;5005631;28;20046;-75
2021/05/21 00:52:27;;;;;;;2.05;1.85;;;13.50;86.40;;;;;;4999208;28;20065;-75
2021/05/21 00:54:53;;;;;;;1.33;1.10;;;13.40;86.60;;;;;;5001947;28;20359;-75
2021/05/21 00:57:19;;;;;;;3.28;1.50;;;13.40;86.50;;;;;;5009519;28;20042;-76
2021/05/21 00:59:44;;;;;;;2.80;1.70;;;13.40;86.50;;;;;;5006002;28;20049;-75
2021/05/21 01:02:10;;;;;;;2.05;1.85;;;13.40;86.40;;;;;;5005625;28;20046;-75
2021/05/21 01:04:36;;;;;;;3.28;1.65;;;13.40;86.60;;;;;;5003897;28;20046;-75
2021/05/21 01:07:03;;;;;;;2.03;1.70;;;13.40;86.70;;;;;;4999514;28;20034;-75
2021/05/21 01:09:29;;;;;;;2.92;1.50;;;13.40;86.80;;;;;;5002851;28;20077;-75
2021/05/21 01:11:54;;;;;;;2.83;1.98;;;13.40;86.80;;;;;;5003861;28;20034;-75
2021/05/21 01:14:20;;;;;;;2.13;1.52;;;13.40;86.80;;;;;;5000458;28;20050;-76
2021/05/21 01:16:45;;;;;;;2.65;1.60;;;13.40;86.90;;;;;;5003241;28;20136;-77
2021/05/21 01:19:11;;;;;;;2.15;1.70;;;13.40;86.70;;;;;;5007843;28;20106;-75
2021/05/21 01:21:36;;;;;;;2.40;1.58;;;13.40;87.10;;;;;;5007218;28;20034;-75
2021/05/21 01:24:04;;;;;;;2.20;1.85;;;13.40;87.10;;;;;;5012003;28;20509;-75
2021/05/21 01:26:30;;;;;;;2.67;2.28;;;13.40;87.00;;;;;;4999347;28;20046;-75
2021/05/21 01:28:55;;;;;;;3.53;1.75;;;13.40;87.00;;;;;;5001373;28;20065;-75
2021/05/21 01:31:23;;;;;;;4.28;2.25;;;13.30;87.10;;;;;;5012976;28;20040;-75
2021/05/21 01:33:48;;;;;;;3.03;1.92;;;13.30;86.90;;;;;;5005590;28;20057;-75
2021/05/21 01:36:14;;;;;;;2.40;2.00;;;13.30;86.90;;;;;;5011034;28;20050;-75
2021/05/21 01:39:01;;;;;;;2.70;1.90;;;13.30;87.10;;;;;;4998856;28;20033;-75
2021/05/21 01:41:28;;;;;;;3.10;1.42;;;13.30;87.10;;;;;;5006644;28;20034;-75
2021/05/21 01:43:55;;;;;;;2.40;1.52;;;13.30;87.10;;;;;;5001064;28;20030;-75
2021/05/21 01:46:21;;;;;;;2.00;1.33;;;13.30;86.80;;;;;;5004998;28;20053;-75
2021/05/21 01:48:47;;;;;;;2.30;1.50;;;13.30;86.90;;;;;;5007851;28;20894;-76
2021/05/21 01:51:13;;;;;;;2.03;1.58;;;13.40;87.00;;;;;;5008719;28;20038;-75
2021/05/21 01:53:39;;;;;;;2.22;1.65;;;13.40;87.00;;;;;;4996555;28;20050;-75
2021/05/21 01:56:06;;;;;;;2.13;1.70;;;13.40;87.60;;;;;;4996613;28;20421;-75
2021/05/21 01:58:32;;;;;;;1.42;1.10;;;13.40;87.40;;;;;;5006392;28;20386;-75
2021/05/21 02:00:58;;;;;;;1.58;1.48;;;13.30;87.50;;;;;;4995765;28;20049;-75
2021/05/21 02:03:23;;;;;;;3.15;1.92;;;13.40;87.70;;;;;;5001197;28;20030;-76
2021/05/21 02:05:49;;;;;;;3.47;1.40;;;13.40;87.20;;;;;;5003373;28;20049;-76
2021/05/21 02:08:14;;;;;;;1.98;1.35;;;13.40;87.00;;;;;;5006193;28;20046;-76
2021/05/21 02:10:40;;;;;;;2.60;1.80;;;13.40;87.40;;;;;;5006555;28;20036;-76
2021/05/21 02:13:06;;;;;;;2.17;1.60;;;13.40;87.50;;;;;;5023453;28;20052;-76
2021/05/21 02:15:31;;;;;;;2.55;1.52;;;13.40;87.30;;;;;;5006519;28;20053;-76
2021/05/21 02:17:57;;;;;;;1.67;1.33;;;13.30;87.10;;;;;;4996071;28;20377;-76
2021/05/21 02:20:22;;;;;;;3.25;1.70;;;13.30;86.90;;;;;;4999260;28;20062;-76
2021/05/21 02:22:48;;;;;;;2.15;1.70;;;13.30;87.10;;;;;;4998372;28;20034;-76
2021/05/21 02:25:14;;;;;;;1.60;1.50;;;13.30;87.50;;;;;;5013125;28;20048;-76
2021/05/21 02:27:40;;;;;;;3.50;1.42;;;13.30;87.40;;;;;;5010704;28;20038;-76
2021/05/21 02:30:09;;;;;;;2.90;1.65;;;13.30;87.10;;;;;;5001622;28;20118;-75
2021/05/21 02:32:35;;;;;;;3.78;1.60;;;13.30;87.40;;;;;;5001542;28;20354;-76
2021/05/21 02:35:01;;;;;;;3.53;1.63;;;13.30;87.00;;;;;;5010470;28;20042;-75
2021/05/21 02:37:27;;;;;;;2.20;1.55;;;13.30;87.30;;;;;;5006073;28;20052;-75
2021/05/21 02:39:52;;;;;;;2.42;2.10;;;13.30;87.10;;;;;;5004084;28;20042;-75
2021/05/21 02:42:18;;;;;;;2.03;1.52;;;13.30;87.50;;;;;;5005785;28;20080;-75
2021/05/21 02:44:43;;;;;;;5.53;3.05;;;13.30;87.60;;;;;;5004797;28;20070;-76
2021/05/21 02:47:09;;;;;;;1.85;1.40;;;13.30;87.60;;;;;;5006363;28;20037;-76
2021/05/21 02:49:35;;;;;;;2.35;1.88;;;13.30;87.40;;;;;;5001942;28;20050;-76
2021/05/21 02:52:01;;;;;;;2.45;2.17;;;13.30;87.40;;;;;;5004864;28;20042;-76
2021/05/21 02:54:26;;;;;;;3.65;2.53;;;13.30;87.30;;;;;;4996115;28;20046;-74
2021/05/21 02:56:51;;;;;;;1.60;1.50;;;13.30;87.50;;;;;;5008387;28;20129;-76
2021/05/21 02:59:17;;;;;;;2.03;1.73;;;13.30;87.40;;;;;;5006036;28;20046;-75
2021/05/21 03:01:43;;;;;;;5.43;1.73;;;13.30;87.50;;;;;;4996583;28;20041;-75
2021/05/21 03:04:08;;;;;;;2.10;1.55;;;13.30;87.30;;;;;;4999366;28;20041;-75
2021/05/21 03:06:34;;;;;;;3.10;1.63;;;13.30;87.30;;;;;;5010341;28;20647;-75
2021/05/21 03:08:59;;;;;;;2.53;1.48;;;13.30;86.90;;;;;;5004575;28;20046;-75
2021/05/21 03:11:25;;;;;;;1.77;1.40;;;13.30;86.90;;;;;;4998648;28;20042;-76
2021/05/21 03:13:51;;;;;;;2.30;1.90;;;13.30;86.70;;;;;;4996643;28;20042;-75
2021/05/21 03:16:16;;;;;;;3.85;1.83;;;13.40;87.20;;;;;;4999537;28;20085;-76
2021/05/21 03:18:42;;;;;;;1.65;1.42;;;13.40;86.20;;;;;;5003439;28;20139;-75
2021/05/21 03:21:07;;;;;;;2.85;1.60;;;13.40;86.60;;;;;;5002753;28;20050;-76
2021/05/21 03:23:33;;;;;;;1.58;1.40;;;13.40;86.80;;;;;;5012750;28;20066;-75
2021/05/21 03:25:59;;;;;;;2.25;1.70;;;13.40;86.00;;;;;;5010720;28;20047;-76
2021/05/21 03:28:25;;;;;;;1.83;1.50;;;13.40;86.10;;;;;;5012667;28;20050;-76
2021/05/21 03:30:51;;;;;;;1.83;1.70;;;13.40;86.20;;;;;;4995502;28;20042;-76
2021/05/21 03:33:16;;;;;;;2.17;1.40;;;13.40;85.60;;;;;;5000405;28;20050;-75
2021/05/21 03:35:42;;;;;;;1.45;1.30;;;13.40;85.90;;;;;;5009832;28;20104;-76
2021/05/21 03:38:08;;;;;;;2.22;1.48;;;13.40;85.60;;;;;;5013304;28;20042;-74
2021/05/21 03:40:36;;;;;;;2.30;1.27;;;13.40;85.30;;;;;;5010578;28;20038;-74
2021/05/21 03:43:02;;;;;;;1.65;1.55;;;13.40;85.40;;;;;;5002227;28;20030;-75
2021/05/21 03:45:27;;;;;;;1.83;1.55;;;13.50;85.50;;;;;;5001138;28;20057;-75
2021/05/21 03:47:53;;;;;;;2.63;1.40;;;13.50;85.50;;;;;;5001357;28;20390;-75
2021/05/21 03:50:20;;;;;;;1.67;1.45;;;13.50;85.10;;;;;;5000736;28;20065;-75
2021/05/21 03:52:48;;;;;;;2.20;1.15;;;13.60;85.40;;;;;;5002616;28;20065;-76
2021/05/21 03:55:14;;;;;;;4.05;1.63;;;13.60;85.20;;;;;;4999568;28;20038;-76
2021/05/21 03:57:40;;;;;;;1.73;1.35;;;13.60;85.10;;;;;;5008764;28;20046;-76
2021/05/21 04:00:08;;;;;;;2.10;1.40;;;13.50;84.60;;;;;;5000576;28;20406;-76
2021/05/21 04:02:33;;;;;;;4.55;1.80;;;13.60;85.10;;;;;;4998305;28;20160;-76
2021/05/21 04:04:59;;;;;;;3.08;1.73;;;13.60;85.00;;;;;;5000741;28;20471;-74
2021/05/21 04:07:24;;;;;;;1.55;1.20;;;13.60;84.90;;;;;;5000135;28;20042;-76
2021/05/21 04:09:50;;;;;;;2.13;1.30;;;13.60;85.00;;;;;;5001454;28;20030;-74
2021/05/21 04:12:16;;;;;;;4.13;1.60;;;13.70;84.80;;;;;;4998493;28;20045;-75
2021/05/21 04:14:41;;;;;;;8.77;1.35;;;13.70;84.80;;;;;;5000903;28;20041;-75
2021/05/21 04:17:07;;;;;;;1.48;1.23;;;13.70;83.80;;;;;;4998908;28;20077;-76
2021/05/21 04:19:32;;;;;;;3.85;1.63;;;13.80;84.20;;;;;;5001261;28;20069;-74
2021/05/21 04:21:58;;;;;;;1.30;1.15;;;13.80;83.80;;;;;;5000599;28;20049;-75
2021/05/21 04:24:23;;;;;;;1.90;1.58;;;13.80;83.80;;;;;;5006679;28;20420;-75
2021/05/21 04:26:49;;;;;;;1.75;1.30;;;13.90;83.30;;;;;;5002762;28;20097;-74
2021/05/21 04:29:14;;;;;;;1.45;1.17;;;13.90;83.90;;;;;;4999947;28;20077;-75
2021/05/21 04:31:40;;;;;;;1.92;1.50;;;14.00;84.00;;;;;;5005076;28;20410;-76
2021/05/21 04:34:05;;;;;;;1.85;1.40;;;14.00;83.40;;;;;;4998222;28;20377;-73
2021/05/21 04:36:31;;;;;;;1.50;1.27;;;14.00;83.40;;;;;;5004290;28;20348;-77
2021/05/21 04:38:57;;;;;;;2.17;1.23;;;14.00;83.90;;;;;;5001294;28;20034;-75
2021/05/21 04:41:22;;;;;;;1.90;1.58;;;14.00;83.70;;;;;;5003453;28;20038;-75
2021/05/21 04:43:50;;;;;;;2.53;1.52;;;14.10;83.70;;;;;;5008717;28;20051;-75
2021/05/21 04:46:15;;;;;;;1.65;1.33;;;14.10;83.30;;;;;;5008703;28;20057;-76
2021/05/21 04:48:41;;;;;;;3.95;1.50;;;14.20;83.40;;;;;;5000030;28;20301;-76
2021/05/21 04:51:06;;;;;;;5.22;1.13;;;14.20;83.00;;;;;;5006871;28;20046;-76
2021/05/21 04:53:32;;;;;;;2.35;1.50;;;14.20;84.10;;;;;;5003411;28;20065;-76
2021/05/21 04:55:57;;;;;;;1.67;1.48;;;14.30;83.00;;;;;;5003338;28;20154;-76
2021/05/21 04:58:23;;;;;;;1.50;1.30;;;14.30;83.40;;;;;;5007723;28;20468;-77
2021/05/21 05:00:49;;;;;;;1.70;1.40;;;14.30;83.00;;;;;;5014197;28;20051;-76
2021/05/21 05:03:17;;;;;;;1.38;1.20;;;14.40;82.70;;;;;;4999722;28;20342;-75
2021/05/21 05:05:46;;;;;;;1.25;0.90;;;14.40;83.70;;;;;;5014116;28;20049;-75
2021/05/21 05:08:16;;;;;;;1.40;1.25;;;14.50;83.40;;;;;;5012848;28;20072;-76
2021/05/21 05:10:46;;;;;;;4.28;1.30;;;14.40;83.00;;;;;;5017048;28;20050;-76
2021/05/21 05:13:12;;;;;;;4.05;1.20;;;14.40;83.10;;;;;;5015809;28;20033;-76
2021/05/21 05:15:38;;;;;;;1.70;1.23;;;14.40;82.40;;;;;;5030141;28;20103;-76
2021/05/21 05:18:04;;;;;;;2.30;1.13;;;14.50;83.40;;;;;;5034507;28;20033;-76
2021/05/21 05:20:30;;;;;;;3.10;1.52;;;14.60;83.10;;;;;;5015694;28;20041;-75
2021/05/21 05:22:56;;;;;;;2.08;1.35;;;14.60;82.40;;;;;;5015347;28;20413;-75
2021/05/21 05:25:22;;;;;;;1.77;1.23;;;14.60;82.20;;;;;;5016196;28;20041;-76
2021/05/21 05:27:50;;;;;;;1.65;1.25;;;14.70;82.00;;;;;;5015139;28;20045;-76
2021/05/21 05:30:16;;;;;;;2.20;1.17;;;14.70;81.90;;;;;;5016320;28;20100;-75
2021/05/21 05:32:42;;;;;;;2.17;1.30;;;14.70;81.40;;;;;;5014948;28;20065;-75
2021/05/21 05:35:08;;;;;;;1.65;0.93;;;14.70;81.00;;;;;;5015182;28;20409;-75
2021/05/21 05:37:33;;;;;;;2.42;1.42;;;14.70;80.40;;;;;;5015063;28;20037;-76
2021/05/21 05:39:59;;;;;;;1.38;1.02;;;14.70;80.30;;;;;;5015305;28;20049;-76
2021/05/21 05:42:25;;;;;;;2.70;1.00;;;14.80;80.70;;;;;;5014600;28;20164;-76
2021/05/21 05:44:50;;;;;;;1.60;1.00;;;14.80;80.30;;;;;;5010670;28;20110;-76
2021/05/21 05:47:16;;;;;;;1.92;1.20;;;14.80;80.10;;;;;;5004958;28;20041;-77
2021/05/21 05:49:41;;;;;;;1.85;1.10;;;14.80;80.70;;;;;;5015680;28;20041;-75
2021/05/21 05:52:07;;;;;;;1.58;1.20;;;14.90;80.50;;;;;;5012079;28;20053;-75
2021/05/21 05:54:33;;;;;;;1.02;0.90;;;14.90;80.00;;;;;;4997413;28;20607;-75
2021/05/21 05:56:58;;;;;;;1.15;1.02;;;15.00;78.90;;;;;;5007435;28;20042;-75
2021/05/21 05:59:27;;;;;;;3.88;1.38;;;15.00;79.30;;;;;;5011102;28;20042;-75
2021/05/21 06:01:53;;;;;;;2.10;1.42;;;15.00;79.10;;;;;;5006144;28;20337;-76
2021/05/21 06:04:19;;;;;;;2.53;1.20;;;15.00;79.60;;;;;;5008495;28;20046;-76
2021/05/21 06:06:46;;;;;;;3.35;0.73;;;15.10;79.40;;;;;;5013347;28;20033;-76
2021/05/21 06:09:12;;;;;;;2.25;1.42;;;15.10;79.30;;;;;;5002976;28;20414;-74
2021/05/21 06:11:37;;;;;;;1.10;0.80;;;15.20;78.90;;;;;;5014692;28;20049;-75
2021/05/21 06:14:04;;;;;;;1.00;0.73;;;15.30;78.30;;;;;;5004213;28;20301;-75
2021/05/21 06:16:30;;;;;;;0.80;0.70;;;15.30;78.80;;;;;;4994367;28;20159;-76
2021/05/21 06:18:55;;;;;;;2.58;0.75;;;15.40;78.60;;;;;;4995064;28;20041;-75
2021/05/21 06:21:21;;;;;;;2.08;1.15;;;15.60;77.90;;;;;;5004727;28;20301;-75
2021/05/21 06:23:47;;;;;;;3.38;0.73;;;15.70;77.90;;;;;;5014706;28;20046;-75
2021/05/21 06:26:30;;;;;;;2.63;0.95;;;15.80;76.30;;;;;;5010102;28;20042;-75
2021/05/21 06:28:55;;;;;;;2.90;0.98;;;15.80;76.90;;;;;;5002356;28;20045;-76
2021/05/21 06:31:21;;;;;;;2.92;0.80;;;15.80;77.60;;;;;;5012726;28;20080;-76
2021/05/21 06:33:47;;;;;;;1.02;0.70;;;15.70;76.20;;;;;;5014344;28;20461;-76
2021/05/21 06:36:13;;;;;;;1.33;0.88;;;15.80;76.80;;;;;;5009461;28;20401;-77
2021/05/21 06:38:39;;;;;;;2.03;0.95;;;15.90;76.90;;;;;;4994565;28;20046;-76
2021/05/21 06:41:05;;;;;;;1.90;0.75;;;15.90;76.70;;;;;;5003038;28;20305;-76
2021/05/21 06:43:31;;;;;;;1.15;0.70;;;16.00;76.60;;;;;;5013609;28;20084;-76
2021/05/21 06:45:59;;;;;;;0.77;0.70;;;16.10;75.80;;;;;;5002125;28;20836;-76
2021/05/21 06:48:32;;;;;;;1.40;0.80;;;16.20;76.40;;;;;;4994667;28;20045;-76
2021/05/21 06:51:06;;;;;;;1.27;0.98;;;16.20;75.60;;;;;;4994973;28;20369;-76
2021/05/21 06:53:32;;;;;;;0.82;0.68;;;16.30;76.60;;;;;;4994762;28;20066;-76
2021/05/21 06:55:58;;;;;;;1.83;0.80;;;16.40;75.30;;;;;;5003588;28;20418;-75
2021/05/21 06:58:26;;;;;;;1.65;0.80;;;16.50;74.40;;;;;;5008615;28;20088;-75
2021/05/21 07:00:52;;;;;;;3.05;0.98;;;16.50;74.90;;;;;;5011562;28;20044;-74
2021/05/21 07:03:18;;;;;;;0.63;0.60;;;16.60;74.60;;;;;;4993255;28;20129;-75
2021/05/21 07:05:44;;;;;;;0.98;0.65;;;16.80;73.30;;;;;;4993486;28;20130;-75
2021/05/21 07:08:10;;;;;;;1.35;0.63;;;16.90;73.70;;;;;;4994318;28;20406;-76
2021/05/21 07:10:36;;;;;;;4.30;0.82;;;17.10;73.00;;;;;;5012092;28;20042;-76
2021/05/21 07:13:11;;;;;;;2.25;0.82;;;17.10;72.50;;;;;;5013171;28;20112;-76
2021/05/21 07:15:39;;;;;;;2.10;0.88;;;17.20;73.70;;;;;;5013553;28;20116;-74
2021/05/21 07:18:05;;;;;;;0.88;0.70;;;17.30;73.90;;;;;;5013125;28;20057;-75
2021/05/21 07:20:31;;;;;;;2.20;0.75;;;17.30;72.10;;;;;;5013227;28;20049;-76
2021/05/21 07:22:57;;;;;;;3.58;0.68;;;17.40;72.30;;;;;;5013039;28;20068;-75
2021/05/21 07:25:23;;;;;;;4.82;1.23;;;17.50;71.20;;;;;;5013123;28;20441;-76
2021/05/21 07:27:49;;;;;;;1.40;0.60;;;17.50;71.80;;;;;;5002406;28;20101;-75
2021/05/21 07:30:15;;;;;;;1.17;0.70;;;17.50;71.20;;;;;;4997901;28;20038;-75
2021/05/21 07:32:41;;;;;;;1.38;0.70;;;17.60;71.30;;;;;;5009157;28;20127;-74
2021/05/21 07:35:07;;;;;;;1.00;0.60;;;17.60;71.90;;;;;;5017354;28;20046;-74
2021/05/21 07:37:33;;;;;;;4.18;0.82;;;17.60;71.60;;;;;;5015938;28;20034;-74
2021/05/21 07:39:59;;;;;;;1.58;0.90;;;17.60;71.80;;;;;;5015186;28;20100;-74
2021/05/21 07:42:24;;;;;;;0.70;0.60;;;17.60;71.20;;;;;;5015625;28;20042;-73
2021/05/21 07:44:50;;;;;;;3.72;1.77;;;17.70;72.30;;;;;;5009864;28;20046;-72
2021/05/21 07:47:15;;;;;;;1.30;0.70;;;17.80;73.00;;;;;;5003566;28;20473;-72
2021/05/21 07:49:41;;;;;;;7.13;0.85;;;17.90;70.80;;;;;;5016927;28;20034;-74
2021/05/21 07:52:07;;;;;;;4.53;0.70;;;18.10;70.10;;;;;;5016419;28;20045;-75
2021/05/21 07:54:32;;;;;;;1.45;0.52;;;18.20;69.20;;;;;;5007884;28;20069;-74
2021/05/21 07:56:57;;;;;;;0.90;0.60;;;18.30;69.90;;;;;;4996280;28;20057;-74
2021/05/21 07:59:23;;;;;;;3.45;0.60;;;18.40;71.50;;;;;;5004726;28;20038;-74
2021/05/21 08:01:48;;;;;;;2.88;0.70;;;18.60;70.70;;;;;;5015954;28;20048;-74
2021/05/21 08:04:14;;;;;;;2.88;0.77;;;18.70;70.50;;;;;;5015907;28;20041;-73
2021/05/21 08:06:41;;;;;;;1.83;0.60;;;18.80;68.30;;;;;;5015625;28;20097;-74
2021/05/21 08:09:08;;;;;;;1.83;0.55;;;18.90;68.60;;;;;;5016595;28;20632;-74
2021/05/21 08:11:34;;;;;;;0.85;0.73;;;19.10;69.00;;;;;;5011009;28;20042;-74
2021/05/21 08:13:59;;;;;;;1.30;0.80;;;19.10;67.70;;;;;;4996352;28;20081;-75
2021/05/21 08:16:27;;;;;;;1.13;0.70;;;19.20;68.30;;;;;;4999016;28;20045;-75
2021/05/21 08:18:53;;;;;;;1.05;0.60;;;19.20;66.90;;;;;;5004931;28;20046;-75
2021/05/21 08:21:18;;;;;;;0.80;0.80;;;19.30;67.60;;;;;;5008110;28;20049;-75
2021/05/21 08:23:44;;;;;;;1.52;0.52;;;19.30;68.00;;;;;;5001707;28;20042;-74
2021/05/21 08:26:11;;;;;;;0.80;0.50;;;19.40;68.00;;;;;;4996739;28;20108;-74
2021/05/21 08:28:36;;;;;;;0.60;0.40;;;19.40;64.50;;;;;;5015387;28;20053;-74
2021/05/21 08:31:04;;;;;;;0.80;0.40;;;19.50;63.90;;;;;;5014095;28;20042;-74
2021/05/21 08:33:29;;;;;;;1.15;0.52;;;19.60;63.40;;;;;;5015016;28;20048;-74
2021/05/21 08:35:55;;;;;;;2.95;0.35;;;19.70;63.00;;;;;;5015305;28;20037;-75
2021/05/21 08:38:20;;;;;;;1.98;0.50;;;19.70;63.50;;;;;;5015384;28;20445;-74
2021/05/21 08:40:47;;;;;;;4.35;0.57;;;19.70;61.20;;;;;;5015363;28;20041;-75
2021/05/21 08:43:13;;;;;;;2.13;0.40;;;19.70;60.20;;;;;;5015313;28;20037;-75
2021/05/21 08:45:39;;;;;;;2.60;0.70;;;19.60;60.10;;;;;;5018536;28;20057;-74
2021/05/21 08:48:13;;;;;;;0.73;0.50;;;19.60;61.00;;;;;;5015272;28;20045;-74
2021/05/21 08:50:38;;;;;;;1.02;0.50;;;19.60;61.00;;;;;;5015501;28;20423;-74
2021/05/21 08:53:04;;;;;;;3.45;0.63;;;19.80;61.70;;;;;;5015214;28;20100;-74
2021/05/21 08:55:30;;;;;;;0.88;0.43;;;19.80;61.40;;;;;;5015968;28;20033;-74
2021/05/21 08:57:55;;;;;;;2.15;0.60;;;19.80;59.40;;;;;;5031308;28;20666;-74
2021/05/21 09:00:21;;;;;;;1.15;0.70;;;19.90;60.10;;;;;;5014645;28;20029;-74
2021/05/21 09:02:47;;;;;;;1.15;0.60;;;19.90;59.90;;;;;;5014802;28;20538;-74
2021/05/21 09:05:12;;;;;;;0.77;0.38;;;20.00;61.60;;;;;;5015007;28;20509;-74
2021/05/21 09:07:39;;;;;;;2.03;0.68;;;20.10;62.90;;;;;;5015040;28;20041;-74
2021/05/21 09:10:11;;;;;;;1.48;0.60;;;20.20;61.10;;;;;;5014957;28;20127;-75
2021/05/21 09:12:46;;;;;;;0.82;0.40;;;20.30;62.60;;;;;;5014840;28;20179;-75
2021/05/21 09:15:20;;;;;;;0.82;0.50;;;20.40;59.70;;;;;;5010833;28;20279;-75
2021/05/21 09:18:02;;;;;;;2.53;1.20;;;20.40;58.20;;;;;;5001011;28;21184;-75
2021/05/21 09:20:28;;;;;;;2.17;0.93;;;20.40;61.30;;;;;;5004315;28;20131;-75
2021/05/21 09:23:11;;;;;;;7.43;0.40;;;20.50;58.60;;;;;;5004648;28;20046;-74
2021/05/21 09:25:41;;;;;;;;;;;20.60;58.30;;;;;;5006279;28;20089;-75
2021/05/21 09:28:27;;;;;;;1.92;0.50;;;20.60;60.80;;;;;;4995142;28;19910;-73
2021/05/21 09:31:18;;;;;;;1.13;0.45;;;20.60;60.60;;;;;;5005300;28;20065;-75
2021/05/21 09:33:46;;;;;;;0.52;0.30;;;20.50;61.70;;;;;;5014694;28;20048;-73
2021/05/21 09:36:12;;;;;;;2.72;0.63;;;20.60;59.90;;;;;;5015243;28;20156;-75
2021/05/21 09:38:51;;;;;;;0.60;0.40;;;20.60;61.10;;;;;;5014726;28;20061;-75
2021/05/21 09:41:17;;;;;;;2.05;0.57;;;20.60;59.90;;;;;;5015053;28;20034;-74
2021/05/21 09:43:49;;;;;;;2.05;0.55;;;20.60;61.10;;;;;;5013918;28;20433;-74
2021/05/21 09:46:15;;;;;;;0.95;0.60;;;20.60;60.80;;;;;;5014792;28;20045;-74
2021/05/21 09:48:40;;;;;;;2.17;0.68;;;20.50;61.60;;;;;;5014545;28;20045;-74
2021/05/21 09:51:06;;;;;;;3.13;0.50;;;20.60;61.90;;;;;;5014140;28;20046;-74
2021/05/21 09:53:35;;;;;;;1.65;0.40;;;20.70;62.20;;;;;;5014417;28;20073;-75
2021/05/21 09:56:05;;;;;;;0.77;0.57;;;20.80;59.90;;;;;;5014392;28;20048;-75
2021/05/21 09:58:33;;;;;;;1.15;0.50;;;20.90;59.50;;;;;;5013718;28;20095;-74
2021/05/21 10:01:14;;;;;;;1.58;0.70;;;21.00;59.90;;;;;;5013278;28;20453;-75
2021/05/21 10:03:42;;;;;;;2.35;0.73;;;21.00;60.00;;;;;;5014337;28;20033;-74
2021/05/21 10:06:08;;;;;;;1.92;0.63;;;21.00;60.10;;;;;;5014521;28;20452;-75
2021/05/21 10:08:34;;;;;;;0.85;0.50;;;21.10;60.50;;;;;;5014844;28;20045;-74
2021/05/21 10:11:00;;;;;;;2.53;0.60;;;21.10;60.70;;;;;;5014610;28;20038;-74
2021/05/21 10:13:26;;;;;;;2.75;0.63;;;21.10;60.20;;;;;;5013786;28;20653;-74
2021/05/21 10:15:55;;;;;;;4.43;0.50;;;21.10;60.10;;;;;;5014442;28;20293;-75
2021/05/21 10:18:22;;;;;;;6.20;1.63;;;21.10;61.30;;;;;;5014152;28;20037;-76
2021/05/21 10:20:48;;;;;;;0.85;0.40;;;21.20;60.10;;;;;;4994330;28;20056;-75
2021/05/21 10:23:21;;;;;;;2.58;0.70;;;21.20;58.30;;;;;;5000973;28;20042;-75
2021/05/21 10:25:51;;;;;;;2.63;0.60;;;21.20;57.20;;;;;;5007885;28;20056;-75
2021/05/21 10:28:20;;;;;;;0.93;0.52;;;21.20;59.90;;;;;;5014351;28;20130;-76
2021/05/21 10:30:46;;;;;;;0.73;0.40;;;21.10;58.50;;;;;;5004672;28;20369;-74
2021/05/21 10:33:17;;;;;;;0.90;0.40;;;21.10;59.50;;;;;;5000736;28;20048;-75
2021/05/21 10:35:43;;;;;;;1.58;0.70;;;21.10;56.90;;;;;;5009165;28;20049;-75
2021/05/21 10:38:25;;;;;;;1.52;0.50;;;21.00;58.90;;;;;;5008832;28;20034;-77
2021/05/21 10:41:13;;;;;;;3.25;1.05;;;21.10;61.10;;;;;;5000886;28;20038;-76
2021/05/21 10:43:50;;;;;;;0.90;0.50;;;21.20;58.80;;;;;;5009073;28;20429;-76
2021/05/21 10:46:19;;;;;;;3.90;0.70;;;21.40;59.40;;;;;;5001174;28;20069;-78
2021/05/21 10:48:59;;;;;;;0.65;0.40;;;21.50;56.10;;;;;;5007511;28;20435;-76
2021/05/21 10:51:27;;;;;;;3.60;0.88;;;21.50;56.80;;;;;;4995775;28;20048;-76
2021/05/21 10:54:23;;;;;;;3.88;0.50;;;21.60;59.10;;;;;;5004865;28;20714;-76
2021/05/21 10:56:49;;;;;;;0.68;0.40;;;21.70;56.30;;;;;;5013475;28;20305;-76
2021/05/21 10:59:14;;;;;;;1.75;0.40;;;21.70;57.20;;;;;;5014021;28;20121;-74
2021/05/21 11:01:44;;;;;;;1.70;0.50;;;21.90;55.90;;;;;;5000452;28;20061;-74
2021/05/21 11:04:11;;;;;;;0.98;0.40;;;21.90;53.30;;;;;;5014501;28;20738;-75
2021/05/21 11:06:55;;;;;;;2.42;0.40;;;22.00;53.60;;;;;;5017592;28;20084;-74
2021/05/21 11:09:23;;;;;;;1.35;0.40;;;22.20;53.40;;;;;;5017044;28;20038;-75
2021/05/21 11:12:08;;;;;;;1.40;0.52;;;22.40;55.30;;;;;;5012231;28;20034;-75
2021/05/21 11:14:41;;;;;;;2.25;0.47;;;22.70;55.10;;;;;;5008304;28;20309;-75
2021/05/21 11:17:22;;;;;;;5.25;0.52;;;23.10;55.20;;;;;;5017341;28;20631;-75
2021/05/21 11:19:56;;;;;;;2.13;0.77;;;23.50;52.10;;;;;;4997895;28;20042;-74
2021/05/21 11:22:38;;;;;;;1.30;0.40;;;23.30;50.20;;;;;;4996919;28;20065;-75
2021/05/21 11:25:07;;;;;;;3.40;0.40;;;22.90;50.90;;;;;;5015284;28;20057;-75
2021/05/21 11:27:34;;;;;;;1.02;0.40;;;22.70;49.70;;;;;;5016628;28;20046;-75
2021/05/21 11:30:07;;;;;;;1.45;0.40;;;22.40;51.10;;;;;;5006240;28;20045;-76
2021/05/21 11:32:33;;;;;;;5.35;0.80;;;22.10;51.70;;;;;;5006201;28;20417;-76
2021/05/21 11:34:58;;;;;;;2.10;0.57;;;21.90;53.40;;;;;;4997125;28;20141;-76
2021/05/21 11:37:26;;;;;;;2.40;0.52;;;21.70;55.60;;;;;;5014698;28;20046;-74
2021/05/21 11:39:53;;;;;;;1.85;0.30;;;21.80;54.80;;;;;;5017003;28;20038;-76
2021/05/21 11:42:22;;;;;;;1.20;0.50;;;21.80;52.50;;;;;;5008465;28;20046;-76
2021/05/21 11:44:53;;;;;;;0.52;0.40;;;21.80;53.20;;;;;;5013932;28;20352;-76
2021/05/21 11:47:27;;;;;;;3.35;0.30;;;21.70;53.50;;;;;;5012816;28;20092;-75
2021/05/21 11:49:54;;;;;;;5.55;0.95;;;21.70;51.10;;;;;;4997462;28;20034;-76
2021/05/21 11:52:19;;;;;;;0.73;0.40;;;21.70;53.30;;;;;;4997115;28;20042;-76
2021/05/21 11:54:45;;;;;;;3.60;0.60;;;21.70;52.20;;;;;;4996500;28;20042;-76
2021/05/21 11:57:18;;;;;;;2.80;0.50;;;21.70;53.40;;;;;;4996727;28;20149;-75
2021/05/21 11:59:44;;;;;;;0.57;0.30;;;21.80;52.00;;;;;;5003547;28;20030;-75
2021/05/21 12:02:13;;;;;;;2.55;0.50;;;21.80;55.00;;;;;;5016032;28;20052;-74
2021/05/21 12:04:40;;;;;;;1.52;0.65;;;21.80;51.90;;;;;;5015564;28;20056;-75
2021/05/21 12:07:06;;;;;;;0.95;0.43;;;21.90;54.00;;;;;;5004061;28;20457;-75
2021/05/21 12:09:35;;;;;;;1.60;0.50;;;21.90;54.40;;;;;;4997981;28;20042;-76
2021/05/21 12:12:00;;;;;;;1.73;0.45;;;21.80;52.60;;;;;;5000489;28;20050;-75
2021/05/21 12:14:29;;;;;;;1.95;0.60;;;21.60;55.20;;;;;;5015239;28;20040;-75
2021/05/21 12:16:57;;;;;;;2.15;0.55;;;21.50;54.50;;;;;;5010132;28;20425;-76
2021/05/21 12:19:24;;;;;;;1.20;0.43;;;21.30;52.70;;;;;;5016521;28;20305;-75
2021/05/21 12:21:52;;;;;;;0.60;0.35;;;21.30;56.10;;;;;;5007715;28;20038;-75
2021/05/21 12:24:20;;;;;;;8.65;0.98;;;21.30;53.60;;;;;;5008031;28;20289;-75
2021/05/21 12:26:48;;;;;;;0.52;0.30;;;21.50;55.80;;;;;;5014206;28;20038;-75
2021/05/21 12:29:15;;;;;;;0.60;0.40;;;21.70;52.00;;;;;;5012258;28;20030;-75
2021/05/21 12:31:48;;;;;;;1.88;0.47;;;21.90;51.60;;;;;;5014278;28;20517;-75
2021/05/21 12:34:19;;;;;;;1.30;0.40;;;22.00;48.30;;;;;;5011528;28;20303;-75
2021/05/21 12:36:55;;;;;;;0.90;0.38;;;22.00;48.60;;;;;;5007279;28;20440;-74
2021/05/21 12:39:48;;;;;;;7.15;0.40;;;21.80;49.90;;;;;;4998873;28;20057;-75
2021/05/21 12:42:16;;;;;;;1.83;0.50;;;21.90;49.70;;;;;;5010570;28;20030;-77
2021/05/21 12:44:49;;;;;;;1.20;0.50;;;22.00;48.80;;;;;;5001401;28;20068;-81
2021/05/21 12:47:15;;;;;;;0.45;0.35;;;21.80;49.90;;;;;;5000107;28;20158;-78
2021/05/21 12:49:49;;;;;;;1.17;0.50;;;21.70;49.90;;;;;;4998886;28;20114;-80